createdAt,value
2018-03-11T00:00:15.917Z,32.77
2018-03-11T00:02:47.335Z,28.23
2018-03-11T00:05:14.794Z,28.83
2018-03-11T00:07:42.286Z,25.63
2018-03-11T00:10:09.737Z,27.27
2018-03-11T00:12:37.212Z,27.63
2018-03-11T00:15:04.664Z,29.40
2018-03-11T00:17:42.071Z,26.57
2018-03-11T00:20:15.742Z,26.90
2018-03-11T00:22:43.218Z,26.97
2018-03-11T00:25:10.677Z,29.37
2018-03-11T00:27:38.138Z,25.93
2018-03-11T00:30:05.601Z,27.20
2018-03-11T00:32:33.065Z,24.23
2018-03-11T00:35:01.321Z,26.33
2018-03-11T00:37:30.773Z,29.57
2018-03-11T00:40:09.667Z,27.57
2018-03-11T00:42:37.141Z,21.07
2018-03-11T00:45:13.495Z,24.67
2018-03-11T00:48:00.526Z,26.83
2018-03-11T00:50:28.789Z,30.07
2018-03-11T00:52:57.018Z,22.57
2018-03-11T00:55:26.391Z,27.43
2018-03-11T00:57:53.906Z,27.53
2018-03-11T01:00:21.309Z,26.30
2018-03-11T01:02:48.778Z,26.40
2018-03-11T01:05:16.246Z,25.40
2018-03-11T01:08:03.061Z,22.60
2018-03-11T01:13:44.311Z,28.10
2018-03-11T01:16:11.778Z,26.50
2018-03-11T01:18:40.027Z,30.50
2018-03-11T01:21:07.475Z,28.60
2018-03-11T01:23:34.948Z,27.80
2018-03-11T01:26:02.415Z,26.30
2018-03-11T01:28:29.868Z,31.90
2018-03-11T01:30:57.339Z,24.30
2018-03-11T01:33:24.806Z,20.83
2018-03-11T01:35:53.032Z,25.00
2018-03-11T01:38:20.484Z,27.40
2018-03-11T01:40:47.960Z,23.63
2018-03-11T01:43:15.408Z,22.87
2018-03-11T01:45:42.868Z,27.10
2018-03-11T01:48:10.316Z,27.53
2018-03-11T01:50:38.668Z,32.27
2018-03-11T01:53:08.942Z,32.97
2018-03-11T01:55:36.408Z,31.60
2018-03-11T01:58:03.866Z,33.33
2018-03-11T02:00:31.346Z,29.63
2018-03-11T02:02:59.588Z,27.53
2018-03-11T02:05:27.043Z,28.60
2018-03-11T02:07:54.513Z,31.07
2018-03-11T02:10:22.017Z,29.20
2018-03-11T02:12:49.479Z,27.70
2018-03-11T02:15:16.936Z,29.33
2018-03-11T02:17:44.407Z,23.77
2018-03-11T02:20:11.872Z,28.70
2018-03-11T02:22:39.331Z,28.53
2018-03-11T02:25:07.555Z,25.53
2018-03-11T02:27:35.024Z,24.70
2018-03-11T02:30:03.252Z,29.90
2018-03-11T02:32:30.713Z,27.27
2018-03-11T02:34:58.175Z,25.73
2018-03-11T02:37:25.673Z,27.67
2018-03-11T02:39:53.893Z,25.40
2018-03-11T02:42:21.348Z,20.87
2018-03-11T02:44:48.812Z,26.53
2018-03-11T02:47:16.298Z,22.13
2018-03-11T02:49:43.761Z,23.03
2018-03-11T02:52:11.233Z,20.53
2018-03-11T02:54:39.456Z,25.40
2018-03-11T02:57:06.933Z,24.23
2018-03-11T02:59:34.393Z,24.47
2018-03-11T03:02:01.856Z,22.20
2018-03-11T03:04:29.305Z,19.60
2018-03-11T03:06:56.816Z,17.33
2018-03-11T03:09:24.274Z,19.10
2018-03-11T03:11:51.751Z,21.97
2018-03-11T03:14:19.210Z,17.83
2018-03-11T03:16:46.656Z,18.83
2018-03-11T03:19:14.116Z,21.97
2018-03-11T03:21:41.588Z,22.57
2018-03-11T03:24:09.799Z,18.67
2018-03-11T03:26:37.271Z,22.03
2018-03-11T03:29:04.739Z,21.63
2018-03-11T03:31:32.985Z,19.70
2018-03-11T03:34:00.444Z,22.07
2018-03-11T03:36:27.934Z,19.20
2018-03-11T03:38:55.352Z,21.77
2018-03-11T03:41:22.812Z,21.57
2018-03-11T03:43:50.301Z,22.67
2018-03-11T03:46:18.541Z,21.43
2018-03-11T03:48:46.019Z,21.80
2018-03-11T03:51:13.757Z,20.80
2018-03-11T03:53:41.225Z,19.73
2018-03-11T03:56:08.686Z,17.83
2018-03-11T03:58:36.151Z,19.93
2018-03-11T04:01:03.610Z,17.43
2018-03-11T04:03:31.095Z,17.73
2018-03-11T04:05:58.548Z,17.97
2018-03-11T04:08:26.775Z,20.33
2018-03-11T04:10:54.220Z,16.43
2018-03-11T04:13:21.684Z,17.73
2018-03-11T04:15:49.137Z,19.40
2018-03-11T04:18:16.604Z,17.90
2018-03-11T04:20:44.062Z,19.73
2018-03-11T04:23:11.516Z,20.20
2018-03-11T04:25:38.992Z,17.97
2018-03-11T04:28:06.478Z,19.90
2018-03-11T04:30:33.935Z,19.50
2018-03-11T04:33:01.392Z,18.63
2018-03-11T04:35:29.628Z,19.30
2018-03-11T04:37:57.079Z,20.87
2018-03-11T04:40:24.540Z,20.67
2018-03-11T04:42:51.988Z,19.00
2018-03-11T04:45:19.457Z,21.03
2018-03-11T04:47:46.921Z,20.27
2018-03-11T04:50:14.393Z,16.83
2018-03-11T04:52:41.846Z,20.03
2018-03-11T04:55:09.309Z,17.37
2018-03-11T04:57:36.764Z,19.40
2018-03-11T05:00:04.228Z,20.23
2018-03-11T05:02:31.692Z,22.43
2018-03-11T05:04:59.186Z,20.30
2018-03-11T05:07:27.406Z,18.90
2018-03-11T05:09:54.887Z,21.07
2018-03-11T05:12:22.345Z,17.47
2018-03-11T05:14:49.856Z,19.30
2018-03-11T05:17:18.035Z,20.70
2018-03-11T05:19:45.502Z,17.67
2018-03-11T05:22:12.963Z,19.93
2018-03-11T05:24:40.420Z,18.67
2018-03-11T05:27:07.872Z,20.07
2018-03-11T05:29:35.347Z,20.83
2018-03-11T05:32:02.793Z,19.87
2018-03-11T05:34:30.258Z,21.87
2018-03-11T05:36:57.735Z,21.10
2018-03-11T05:39:25.198Z,20.03
2018-03-11T05:41:52.668Z,22.40
2018-03-11T05:44:20.889Z,25.77
2018-03-11T05:46:48.370Z,24.30
2018-03-11T05:49:15.829Z,22.30
2018-03-11T05:51:43.324Z,22.73
2018-03-11T05:54:11.553Z,24.07
2018-03-11T05:56:39.034Z,27.70
2018-03-11T05:59:06.501Z,24.07
2018-03-11T06:01:33.968Z,26.53
2018-03-11T06:04:01.438Z,24.97
2018-03-11T06:06:29.672Z,20.93
2018-03-11T06:08:57.130Z,23.80
2018-03-11T06:11:24.588Z,24.80
2018-03-11T06:13:52.061Z,25.77
2018-03-11T06:16:19.523Z,24.93
2018-03-11T06:18:46.981Z,25.80
2018-03-11T06:21:14.436Z,26.90
2018-03-11T06:23:41.891Z,24.67
2018-03-11T06:26:09.347Z,22.90
2018-03-11T06:28:36.811Z,21.17
2018-03-11T06:31:04.286Z,20.53
2018-03-11T06:33:31.732Z,23.13
2018-03-11T06:35:59.180Z,22.43
2018-03-11T06:38:26.641Z,25.00
2018-03-11T06:40:54.106Z,23.80
2018-03-11T06:43:21.556Z,22.10
2018-03-11T06:45:49.024Z,21.33
2018-03-11T06:48:16.484Z,20.07
2018-03-11T06:50:43.943Z,19.70
2018-03-11T06:53:12.179Z,20.93
2018-03-11T06:55:39.624Z,19.83
2018-03-11T06:58:07.870Z,20.00
2018-03-11T07:00:36.072Z,21.53
2018-03-11T07:03:03.541Z,21.37
2018-03-11T07:05:31.005Z,18.47
2018-03-11T07:07:58.465Z,22.53
2018-03-11T07:10:25.909Z,19.63
2018-03-11T07:12:53.368Z,20.37
2018-03-11T07:15:20.821Z,20.37
2018-03-11T07:17:48.278Z,19.40
2018-03-11T07:20:15.725Z,23.43
2018-03-11T07:22:43.181Z,20.03
2018-03-11T07:25:10.624Z,18.80
2018-03-11T07:27:38.108Z,20.57
2018-03-11T07:30:05.570Z,18.43
2018-03-11T07:32:33.029Z,22.30
2018-03-11T07:35:00.485Z,19.53
2018-03-11T07:37:27.965Z,27.03
2018-03-11T07:39:55.427Z,25.10
2018-03-11T07:42:22.883Z,26.00
2018-03-11T07:44:50.350Z,22.17
2018-03-11T07:47:17.811Z,22.03
2018-03-11T07:49:45.284Z,21.87
2018-03-11T07:52:12.740Z,26.33
2018-03-11T07:54:40.216Z,25.43
2018-03-11T07:57:08.455Z,24.90
2018-03-11T07:59:35.927Z,25.67
2018-03-11T08:02:03.390Z,21.97
2018-03-11T08:04:30.857Z,24.00
2018-03-11T08:06:59.079Z,21.03
2018-03-11T08:09:26.538Z,21.40
2018-03-11T08:11:53.992Z,25.70
2018-03-11T08:14:21.438Z,22.10
2018-03-11T08:16:48.892Z,17.93
2018-03-11T08:19:16.370Z,25.37
2018-03-11T08:21:43.822Z,22.30
2018-03-11T08:24:11.279Z,21.60
2018-03-11T08:26:38.753Z,25.97
2018-03-11T08:29:06.211Z,25.30
2018-03-11T08:31:33.681Z,22.17
2018-03-11T08:34:01.175Z,19.53
2018-03-11T08:36:29.392Z,25.50
2018-03-11T08:38:57.620Z,23.20
2018-03-11T08:41:25.068Z,25.87
2018-03-11T08:43:52.525Z,22.80
2018-03-11T08:46:19.988Z,27.13
2018-03-11T08:48:47.465Z,19.37
2018-03-11T08:51:15.834Z,21.27
2018-03-11T08:53:43.301Z,18.93
2018-03-11T08:56:10.741Z,18.03
2018-03-11T08:58:38.209Z,18.73
2018-03-11T09:01:06.422Z,16.73
2018-03-11T09:03:33.881Z,17.00
2018-03-11T09:06:01.332Z,19.27
2018-03-11T09:08:28.821Z,20.93
2018-03-11T09:10:56.273Z,16.53
2018-03-11T09:13:23.725Z,16.63
2018-03-11T09:15:51.187Z,16.33
2018-03-11T09:18:18.628Z,18.70
2018-03-11T09:20:46.090Z,16.97
2018-03-11T09:23:13.545Z,15.83
2018-03-11T09:25:41.034Z,19.67
2018-03-11T09:28:08.469Z,16.60
2018-03-11T09:30:36.695Z,16.67
2018-03-11T09:33:04.909Z,14.87
2018-03-11T09:35:32.364Z,15.30
2018-03-11T09:37:59.832Z,14.47
2018-03-11T09:40:27.296Z,18.67
2018-03-11T09:42:54.799Z,15.03
2018-03-11T09:45:23.082Z,19.63
2018-03-11T09:47:51.302Z,18.67
2018-03-11T09:50:18.821Z,20.40
2018-03-11T09:52:46.274Z,20.53
2018-03-11T09:55:13.849Z,22.37
2018-03-11T09:57:41.289Z,18.77
2018-03-11T10:00:08.748Z,19.07
2018-03-11T10:02:36.981Z,17.97
2018-03-11T10:05:04.442Z,16.00
2018-03-11T10:07:31.908Z,16.17
2018-03-11T10:09:59.394Z,15.03
2018-03-11T10:12:27.758Z,16.10
2018-03-11T10:14:55.218Z,15.07
2018-03-11T10:17:22.681Z,16.07
2018-03-11T10:19:50.131Z,18.20
2018-03-11T10:22:17.597Z,16.60
2018-03-11T10:24:45.048Z,18.00
2018-03-11T10:27:12.521Z,17.23
2018-03-11T10:29:40.751Z,16.37
2018-03-11T10:32:08.452Z,14.83
2018-03-11T10:34:35.899Z,15.67
2018-03-11T10:37:03.367Z,12.53
2018-03-11T10:39:30.845Z,16.70
2018-03-11T10:41:59.076Z,18.17
2018-03-11T10:44:26.602Z,15.23
2018-03-11T10:46:54.012Z,15.53
2018-03-11T10:49:21.479Z,15.63
2018-03-11T10:51:48.945Z,16.17
2018-03-11T10:54:17.329Z,17.43
2018-03-11T10:56:45.548Z,17.53
2018-03-11T10:59:13.012Z,16.73
2018-03-11T11:01:46.452Z,14.23
2018-03-11T11:04:14.822Z,15.37
2018-03-11T11:06:42.306Z,15.43
2018-03-11T11:09:09.809Z,14.70
2018-03-11T11:11:37.325Z,14.20
2018-03-11T11:14:04.806Z,15.53
2018-03-11T11:16:32.260Z,13.30
2018-03-11T11:18:59.727Z,11.63
2018-03-11T11:21:27.192Z,11.63
2018-03-11T11:23:54.644Z,11.47
2018-03-11T11:26:22.106Z,14.87
2018-03-11T11:28:49.567Z,17.23
2018-03-11T11:31:17.055Z,12.87
2018-03-11T11:33:44.517Z,12.63
2018-03-11T11:36:11.964Z,11.53
2018-03-11T11:38:39.428Z,13.43
2018-03-11T11:41:06.917Z,17.57
2018-03-11T11:43:34.366Z,15.67
2018-03-11T11:46:02.942Z,14.07
2018-03-11T11:48:32.312Z,17.97
2018-03-11T11:51:01.371Z,17.20
2018-03-11T11:53:29.979Z,17.60
2018-03-11T11:55:57.427Z,15.83
2018-03-11T11:58:24.923Z,17.97
2018-03-11T12:00:53.368Z,15.10
2018-03-11T12:03:20.832Z,16.87
2018-03-11T12:05:48.291Z,13.70
2018-03-11T12:08:15.757Z,12.33
2018-03-11T12:10:43.222Z,11.97
2018-03-11T12:13:10.683Z,12.67
2018-03-11T12:15:38.168Z,13.27
2018-03-11T12:18:06.385Z,10.83
2018-03-11T12:20:33.866Z,15.17
2018-03-11T12:23:01.324Z,13.23
2018-03-11T12:25:28.788Z,11.93
2018-03-11T12:28:01.239Z,11.53
2018-03-11T12:30:28.699Z,10.63
2018-03-11T12:32:56.163Z,10.63
2018-03-11T12:35:24.400Z,10.57
2018-03-11T12:37:52.650Z,11.40
2018-03-11T12:43:24.376Z,9.97
2018-03-11T12:45:52.813Z,9.83
2018-03-11T12:48:20.287Z,11.83
2018-03-11T12:50:47.854Z,8.20
2018-03-11T12:53:19.696Z,7.70
2018-03-11T12:55:47.336Z,8.47
2018-03-11T12:58:14.865Z,7.50
2018-03-11T13:00:42.336Z,8.17
2018-03-11T13:03:09.800Z,8.73
2018-03-11T13:05:37.264Z,8.20
2018-03-11T13:08:04.718Z,7.67
2018-03-11T13:10:32.189Z,7.27
2018-03-11T13:12:59.644Z,8.43
2018-03-11T13:15:27.104Z,7.13
2018-03-11T13:17:54.828Z,6.47
2018-03-11T13:23:30.511Z,6.87
2018-03-11T13:25:57.982Z,7.67
2018-03-11T13:28:37.247Z,6.07
2018-03-11T13:31:04.749Z,5.87
2018-03-11T13:33:44.038Z,5.83
2018-03-11T13:36:11.495Z,5.20
2018-03-11T13:38:50.708Z,4.80
2018-03-11T13:41:18.168Z,5.63
2018-03-11T13:43:45.639Z,4.77
2018-03-11T13:46:25.001Z,5.30
2018-03-11T13:48:53.224Z,5.30
2018-03-11T13:51:32.393Z,4.77
2018-03-11T13:53:59.844Z,5.13
2018-03-11T13:56:27.331Z,5.00
2018-03-11T13:58:55.575Z,5.33
2018-03-11T14:01:23.024Z,5.03
2018-03-11T14:03:50.516Z,4.80
2018-03-11T14:06:18.753Z,5.43
2018-03-11T14:08:47.129Z,5.90
2018-03-11T14:11:14.655Z,5.10
2018-03-11T14:13:42.137Z,5.30
2018-03-11T14:16:09.607Z,5.50
2018-03-11T14:18:37.059Z,5.83
2018-03-11T14:21:04.532Z,5.87
2018-03-11T14:23:32.001Z,6.50
2018-03-11T14:25:59.458Z,5.97
2018-03-11T14:28:26.900Z,6.70
2018-03-11T14:30:54.348Z,5.40
2018-03-11T14:33:21.839Z,6.37
2018-03-11T14:35:50.057Z,5.67
2018-03-11T14:38:17.532Z,5.33
2018-03-11T14:40:44.994Z,6.27
2018-03-11T14:43:12.480Z,6.40
2018-03-11T14:45:39.929Z,6.10
2018-03-11T14:48:07.396Z,5.97
2018-03-11T14:50:34.859Z,6.00
2018-03-11T14:53:02.316Z,7.70
2018-03-11T14:55:29.769Z,5.70
2018-03-11T14:57:57.236Z,6.03
2018-03-11T15:00:24.698Z,6.07
2018-03-11T15:02:52.962Z,5.23
2018-03-11T15:05:20.426Z,6.00
2018-03-11T15:07:47.895Z,6.80
2018-03-11T15:10:17.032Z,7.17
2018-03-11T15:12:44.520Z,6.87
2018-03-11T15:15:11.971Z,6.77
2018-03-11T15:17:39.440Z,7.23
2018-03-11T15:20:06.919Z,7.13
2018-03-11T15:22:35.151Z,9.97
2018-03-11T15:25:02.609Z,8.73
2018-03-11T15:27:30.088Z,8.07
2018-03-11T15:29:57.537Z,8.00
2018-03-11T15:32:25.043Z,7.10
2018-03-11T15:34:52.598Z,7.43
2018-03-11T15:37:20.098Z,8.03
2018-03-11T15:39:47.582Z,9.50
2018-03-11T15:42:15.239Z,10.23
2018-03-11T15:44:43.595Z,9.27
2018-03-11T15:47:11.048Z,8.13
2018-03-11T15:49:38.574Z,7.67
2018-03-11T15:52:06.000Z,9.17
2018-03-11T15:54:33.467Z,8.73
2018-03-11T15:57:00.959Z,10.83
2018-03-11T15:59:30.396Z,9.67
2018-03-11T16:01:57.866Z,9.77
2018-03-11T16:04:25.357Z,13.50
2018-03-11T16:06:53.623Z,11.90
2018-03-11T16:09:21.122Z,11.50
2018-03-11T16:11:48.588Z,11.77
2018-03-11T16:14:16.059Z,10.30
2018-03-11T16:16:43.551Z,11.50
2018-03-11T16:19:11.052Z,21.73
2018-03-11T16:21:38.534Z,26.97
2018-03-11T16:24:10.350Z,20.13
2018-03-11T16:26:38.629Z,16.00
2018-03-11T16:29:06.866Z,14.87
2018-03-11T16:31:34.366Z,12.77
2018-03-11T16:34:02.583Z,12.57
2018-03-11T16:36:30.062Z,9.37
2018-03-11T16:38:58.145Z,9.80
2018-03-11T16:41:25.733Z,8.50
2018-03-11T16:43:53.963Z,9.33
2018-03-11T16:46:21.444Z,10.53
2018-03-11T16:48:48.954Z,8.90
2018-03-11T16:51:16.465Z,8.87
2018-03-11T16:53:43.928Z,9.30
2018-03-11T16:56:11.409Z,11.17
2018-03-11T16:58:38.952Z,8.43
2018-03-11T17:01:07.223Z,7.90
2018-03-11T17:03:34.702Z,7.80
2018-03-11T17:06:02.916Z,8.03
2018-03-11T17:08:30.382Z,8.20
2018-03-11T17:10:57.840Z,7.97
2018-03-11T17:13:25.297Z,8.77
2018-03-11T17:15:52.793Z,10.43
2018-03-11T17:18:21.038Z,8.40
2018-03-11T17:20:48.490Z,8.07
2018-03-11T17:23:15.949Z,8.63
2018-03-11T17:25:43.398Z,8.63
2018-03-11T17:28:11.617Z,12.67
2018-03-11T17:30:41.098Z,9.40
2018-03-11T17:33:08.560Z,10.20
2018-03-11T17:35:36.022Z,11.03
2018-03-11T17:38:03.520Z,11.57
2018-03-11T17:40:31.779Z,12.27
2018-03-11T17:43:00.023Z,13.10
2018-03-11T17:45:27.574Z,12.53
2018-03-11T17:47:55.168Z,11.60
2018-03-11T17:50:23.642Z,12.57
2018-03-11T17:52:51.255Z,12.03
2018-03-11T17:55:18.705Z,10.70
2018-03-11T17:57:46.191Z,10.23
2018-03-11T18:00:15.286Z,10.20
2018-03-11T18:02:42.903Z,10.93
2018-03-11T18:05:12.569Z,12.00
2018-03-11T18:07:42.104Z,10.97
2018-03-11T18:10:11.410Z,9.90
2018-03-11T18:12:40.485Z,10.23
2018-03-11T18:15:07.906Z,11.23
2018-03-11T18:17:35.413Z,12.80
2018-03-11T18:20:02.887Z,11.47
2018-03-11T18:22:42.620Z,12.57
2018-03-11T18:25:12.773Z,10.57
2018-03-11T18:27:40.255Z,12.23
2018-03-11T18:30:07.716Z,12.47
2018-03-11T18:32:35.176Z,11.53
2018-03-11T18:35:04.632Z,12.60
2018-03-11T18:37:32.850Z,10.77
2018-03-11T18:40:00.322Z,13.30
2018-03-11T18:42:27.810Z,11.20
2018-03-11T18:44:56.053Z,12.53
2018-03-11T18:47:27.463Z,12.30
2018-03-11T18:49:54.919Z,10.93
2018-03-11T18:52:22.392Z,9.37
2018-03-11T18:54:49.962Z,10.63
2018-03-11T18:57:17.443Z,9.73
2018-03-11T18:59:44.926Z,10.60
2018-03-11T19:02:13.166Z,9.20
2018-03-11T19:04:40.657Z,9.00
2018-03-11T19:07:08.127Z,10.13
2018-03-11T19:09:35.601Z,10.17
2018-03-11T19:12:03.826Z,11.27
2018-03-11T19:14:31.297Z,10.93
2018-03-11T19:16:58.794Z,12.23
2018-03-11T19:19:26.249Z,10.00
2018-03-11T19:21:54.468Z,10.37
2018-03-11T19:24:21.936Z,10.00
2018-03-11T19:26:49.384Z,9.10
2018-03-11T19:29:16.859Z,8.20
2018-03-11T19:31:44.334Z,8.13
2018-03-11T19:34:11.817Z,10.33
2018-03-11T19:36:40.041Z,9.40
2018-03-11T19:39:07.504Z,10.50
2018-03-11T19:41:34.950Z,9.93
2018-03-11T19:44:02.395Z,9.37
2018-03-11T19:46:29.844Z,9.63
2018-03-11T19:48:57.316Z,10.83
2018-03-11T19:51:24.819Z,9.77
2018-03-11T19:53:52.281Z,9.70
2018-03-11T19:56:20.533Z,9.60
2018-03-11T19:58:49.522Z,9.17
2018-03-11T20:01:16.968Z,9.73
2018-03-11T20:03:44.430Z,8.10
2018-03-11T20:06:11.905Z,8.47
2018-03-11T20:08:39.374Z,8.60
2018-03-11T20:11:06.811Z,8.17
2018-03-11T20:13:34.299Z,8.93
2018-03-11T20:16:02.511Z,8.00
2018-03-11T20:18:30.602Z,8.67
2018-03-11T20:20:58.550Z,8.77
2018-03-11T20:23:33.592Z,8.10
2018-03-11T20:26:05.896Z,8.00
2018-03-11T20:28:34.394Z,8.60
2018-03-11T20:31:02.414Z,7.67
2018-03-11T20:33:30.381Z,7.83
2018-03-11T20:36:09.922Z,7.50
2018-03-11T20:38:38.405Z,8.70
2018-03-11T20:41:06.379Z,8.07
2018-03-11T20:43:34.392Z,10.10
2018-03-11T20:46:21.361Z,9.60
2018-03-11T20:48:49.457Z,9.93
2018-03-11T20:51:18.534Z,10.17
2018-03-11T20:53:52.745Z,9.67
2018-03-11T20:56:38.247Z,9.67
2018-03-11T20:59:05.692Z,10.90
2018-03-11T21:01:33.147Z,9.80
2018-03-11T21:04:00.597Z,9.57
2018-03-11T21:06:28.085Z,8.93
2018-03-11T21:08:55.544Z,8.83
2018-03-11T21:14:16.396Z,8.43
2018-03-11T21:16:54.129Z,8.10
2018-03-11T21:19:21.609Z,9.37
2018-03-11T21:21:54.179Z,9.40
2018-03-11T21:27:17.427Z,9.13
2018-03-11T21:29:45.131Z,9.20
2018-03-11T21:32:14.214Z,9.73
2018-03-11T21:34:42.392Z,9.07
2018-03-11T21:37:09.935Z,9.80
2018-03-11T21:39:37.418Z,11.97
2018-03-11T21:42:04.926Z,13.47
2018-03-11T21:44:35.878Z,11.67
2018-03-11T21:47:04.352Z,11.20
2018-03-11T21:49:32.586Z,9.70
2018-03-11T21:52:00.049Z,9.30
2018-03-11T21:54:27.527Z,9.83
2018-03-11T21:56:54.990Z,11.93
2018-03-11T21:59:23.221Z,9.97
2018-03-11T22:01:50.674Z,10.83
2018-03-11T22:04:18.148Z,8.97
2018-03-11T22:06:45.622Z,9.87
2018-03-11T22:09:13.963Z,8.27
2018-03-11T22:11:41.421Z,8.67
2018-03-11T22:14:08.894Z,9.13
2018-03-11T22:16:38.263Z,9.50
2018-03-11T22:19:05.734Z,9.17
2018-03-11T22:21:33.919Z,8.23
2018-03-11T22:24:02.152Z,8.87
2018-03-11T22:26:30.385Z,9.27
2018-03-11T22:28:58.085Z,13.50
2018-03-11T22:31:26.350Z,9.73
2018-03-11T22:33:54.379Z,9.90
2018-03-11T22:36:21.825Z,9.03
2018-03-11T22:38:49.290Z,9.33
2018-03-11T22:41:17.372Z,9.10
2018-03-11T22:43:44.858Z,8.73
2018-03-11T22:46:12.311Z,8.70
2018-03-11T22:48:39.774Z,8.63
2018-03-11T22:51:07.227Z,9.23
2018-03-11T22:53:34.713Z,9.50
2018-03-11T22:56:02.958Z,10.07
2018-03-11T22:58:30.417Z,10.13
2018-03-11T23:00:58.362Z,8.87
2018-03-11T23:03:25.831Z,10.87
2018-03-11T23:05:54.168Z,9.77
2018-03-11T23:08:22.209Z,9.73
2018-03-11T23:10:50.146Z,12.07
2018-03-11T23:13:17.639Z,10.30
2018-03-11T23:15:45.111Z,9.33
2018-03-11T23:18:12.570Z,9.43
2018-03-11T23:20:40.071Z,9.97
2018-03-11T23:23:07.639Z,9.67
2018-03-11T23:25:35.103Z,9.53
2018-03-11T23:28:02.575Z,9.33
2018-03-11T23:30:30.061Z,10.40
2018-03-11T23:32:57.509Z,9.03
2018-03-11T23:35:24.987Z,9.27
2018-03-11T23:37:53.219Z,10.47
2018-03-11T23:40:20.676Z,9.90
2018-03-11T23:42:48.184Z,9.63
2018-03-11T23:45:16.426Z,8.77
2018-03-11T23:47:43.940Z,9.87
2018-03-11T23:50:11.517Z,11.40
2018-03-11T23:52:38.974Z,9.93
2018-03-11T23:55:06.435Z,9.83
2018-03-11T23:57:34.599Z,9.27
